createdAt,value
2019-03-23T00:02:07.253Z,159.37
2019-03-23T00:04:36.747Z,124.05
2019-03-23T00:07:06.403Z,120.67
2019-03-23T00:09:35.894Z,123.75
2019-03-23T00:12:05.456Z,156.15
2019-03-23T00:14:34.957Z,124.05
2019-03-23T00:17:04.484Z,159.18
2019-03-23T00:19:33.902Z,124.45
2019-03-23T00:22:03.474Z,155.97
2019-03-23T00:24:33.025Z,119.80
2019-03-23T00:27:02.605Z,154.60
2019-03-23T00:29:32.082Z,154.55
2019-03-23T00:32:01.760Z,121.07
2019-03-23T00:34:31.314Z,158.65
2019-03-23T00:37:00.976Z,153.40
2019-03-23T00:39:30.438Z,162.50
2019-03-23T00:41:59.917Z,157.00
2019-03-23T00:44:29.426Z,159.63
2019-03-23T00:46:58.901Z,160.55
2019-03-23T00:49:28.336Z,126.90
2019-03-23T00:51:59.294Z,126.27
2019-03-23T00:54:28.775Z,156.65
2019-03-23T00:56:58.809Z,123.97
2019-03-23T00:59:28.225Z,148.87
2019-03-23T01:01:57.800Z,153.65
2019-03-23T01:04:27.216Z,149.62
2019-03-23T01:06:56.679Z,154.90
2019-03-23T01:09:26.121Z,148.17
2019-03-23T01:11:55.620Z,126.12
2019-03-23T01:14:25.170Z,147.70
2019-03-23T01:16:54.708Z,155.90
2019-03-23T01:19:24.138Z,157.05
2019-03-23T01:21:53.596Z,150.00
2019-03-23T01:24:23.003Z,151.68
2019-03-23T01:26:52.419Z,117.47
2019-03-23T01:29:21.916Z,112.75
2019-03-23T01:31:51.517Z,152.00
2019-03-23T01:34:21.039Z,113.32
2019-03-23T01:36:50.528Z,146.75
2019-03-23T01:39:20.024Z,145.15
2019-03-23T01:41:49.437Z,144.68
2019-03-23T01:44:19.037Z,153.15
2019-03-23T01:46:48.590Z,150.40
2019-03-23T01:49:18.158Z,150.20
2019-03-23T01:51:47.670Z,152.45
2019-03-23T01:54:17.233Z,156.85
2019-03-23T01:56:46.739Z,152.85
2019-03-23T01:59:16.158Z,150.22
2019-03-23T02:01:45.716Z,157.80
2019-03-23T02:04:15.149Z,153.57
2019-03-23T02:06:44.583Z,153.25
2019-03-23T02:09:14.106Z,115.10
2019-03-23T02:11:43.633Z,144.22
2019-03-23T02:14:13.233Z,154.65
2019-03-23T02:16:42.654Z,121.15
2019-03-23T02:19:12.204Z,144.05
2019-03-23T02:21:41.772Z,117.93
2019-03-23T02:24:11.266Z,150.50
2019-03-23T02:26:40.840Z,146.35
2019-03-23T02:29:10.365Z,147.68
2019-03-23T02:31:40.149Z,113.70
2019-03-23T02:34:09.645Z,147.07
2019-03-23T02:36:39.089Z,146.47
2019-03-23T02:39:08.650Z,144.15
2019-03-23T02:41:38.156Z,148.68
2019-03-23T02:44:07.559Z,150.25
2019-03-23T02:46:36.949Z,115.15
2019-03-23T02:49:06.442Z,147.28
2019-03-23T02:51:35.856Z,146.35
2019-03-23T02:54:05.861Z,145.92
2019-03-23T02:56:35.272Z,146.68
2019-03-23T02:59:04.877Z,145.45
2019-03-23T03:01:34.438Z,146.77
2019-03-23T03:04:03.981Z,150.30
2019-03-23T03:06:33.387Z,144.02
2019-03-23T03:09:03.955Z,149.75
2019-03-23T03:11:33.477Z,152.70
2019-03-23T03:14:02.972Z,153.07
2019-03-23T03:16:32.578Z,144.45
2019-03-23T03:19:02.015Z,149.45
2019-03-23T03:21:31.461Z,150.87
2019-03-23T03:24:00.959Z,143.60
2019-03-23T03:26:30.423Z,121.33
2019-03-23T03:28:59.882Z,117.53
2019-03-23T03:31:29.392Z,153.00
2019-03-23T03:33:58.970Z,148.13
2019-03-23T03:36:30.121Z,148.53
2019-03-23T03:38:59.768Z,154.60
2019-03-23T03:41:29.231Z,146.65
2019-03-23T03:43:58.774Z,149.42
2019-03-23T03:46:28.396Z,114.97
2019-03-23T03:49:11.477Z,119.95
2019-03-23T03:51:29.062Z,114.65
2019-03-23T03:53:58.517Z,147.00
2019-03-23T03:56:28.032Z,158.07
2019-03-23T03:58:57.434Z,163.90
2019-03-23T04:01:26.884Z,126.15
2019-03-23T04:03:56.400Z,113.22
2019-03-23T04:06:25.873Z,149.68
2019-03-23T04:08:55.302Z,149.15
2019-03-23T04:11:24.839Z,142.40
2019-03-23T04:13:54.252Z,112.47
2019-03-23T04:16:23.668Z,148.30
2019-03-23T04:18:53.114Z,144.53
2019-03-23T04:21:22.615Z,148.70
2019-03-23T04:23:52.158Z,152.30
2019-03-23T04:26:21.606Z,145.25
2019-03-23T04:28:51.050Z,111.57
2019-03-23T04:31:20.490Z,116.47
2019-03-23T04:33:49.931Z,109.72
2019-03-23T04:36:19.589Z,143.45
2019-03-23T04:38:49.010Z,142.98
2019-03-23T04:41:18.512Z,142.30
2019-03-23T04:43:48.014Z,111.10
2019-03-23T04:46:17.592Z,112.88
2019-03-23T04:48:47.027Z,142.98
2019-03-23T04:51:16.552Z,114.05
2019-03-23T04:53:46.086Z,143.45
2019-03-23T04:56:15.711Z,145.97
2019-03-23T04:58:45.239Z,142.07
2019-03-23T05:01:14.770Z,144.65
2019-03-23T05:03:45.665Z,145.57
2019-03-23T05:06:15.149Z,146.18
2019-03-23T05:08:46.012Z,114.03
2019-03-23T05:11:15.460Z,117.33
2019-03-23T05:13:45.919Z,117.72
2019-03-23T05:16:15.378Z,150.70
2019-03-23T05:18:44.841Z,162.35
2019-03-23T05:21:14.380Z,145.02
2019-03-23T05:23:45.898Z,148.78
2019-03-23T05:26:15.505Z,140.50
2019-03-23T05:28:45.238Z,142.15
2019-03-23T05:31:15.051Z,142.98
2019-03-23T05:33:44.635Z,147.62
2019-03-23T05:36:15.341Z,149.68
2019-03-23T05:38:45.219Z,148.47
2019-03-23T05:41:14.741Z,151.15
2019-03-23T05:43:44.332Z,147.53
2019-03-23T05:46:13.754Z,119.57
2019-03-23T05:48:43.298Z,151.40
2019-03-23T05:51:12.830Z,120.82
2019-03-23T05:53:42.314Z,155.00
2019-03-23T05:56:11.926Z,155.90
2019-03-23T05:58:41.610Z,122.82
2019-03-23T06:01:11.044Z,163.52
2019-03-23T06:03:40.545Z,166.75
2019-03-23T06:06:09.977Z,164.22
2019-03-23T06:08:39.484Z,169.62
2019-03-23T06:11:09.156Z,173.68
2019-03-23T06:13:38.617Z,171.10
2019-03-23T06:16:17.955Z,166.12
2019-03-23T06:18:56.097Z,174.02
2019-03-23T06:21:36.221Z,175.75
2019-03-23T06:24:15.158Z,138.68
2019-03-23T06:26:44.977Z,180.57
2019-03-23T06:29:17.427Z,179.68
2019-03-23T06:31:50.608Z,131.82
2019-03-23T06:34:21.907Z,189.67
2019-03-23T06:36:58.670Z,191.30
2019-03-23T06:39:28.160Z,186.88
2019-03-23T06:41:57.936Z,183.95
2019-03-23T06:44:27.447Z,144.13
2019-03-23T06:47:01.490Z,175.12
2019-03-23T06:49:31.541Z,184.97
2019-03-23T06:52:01.029Z,135.95
2019-03-23T06:54:30.455Z,173.35
2019-03-23T06:57:00.032Z,145.97
2019-03-23T06:59:29.448Z,176.85
2019-03-23T07:01:58.892Z,186.20
2019-03-23T07:04:28.451Z,181.32
2019-03-23T07:06:57.884Z,179.00
2019-03-23T07:09:27.445Z,145.65
2019-03-23T07:11:56.850Z,196.95
2019-03-23T07:14:26.282Z,202.20
2019-03-23T07:16:55.687Z,198.87
2019-03-23T07:19:25.166Z,197.72
2019-03-23T07:21:54.579Z,207.30
2019-03-23T07:24:23.968Z,206.25
2019-03-23T07:26:53.366Z,205.77
2019-03-23T07:29:22.834Z,210.70
2019-03-23T07:31:52.312Z,211.07
2019-03-23T07:34:21.726Z,223.65
2019-03-23T07:36:51.109Z,226.30
2019-03-23T07:39:27.268Z,233.38
2019-03-23T07:41:51.748Z,224.92
2019-03-23T07:44:21.165Z,238.03
2019-03-23T07:46:50.862Z,238.45
2019-03-23T07:49:20.352Z,242.37
2019-03-23T07:51:49.771Z,255.00
2019-03-23T07:54:19.289Z,259.45
2019-03-23T07:56:48.683Z,265.00
2019-03-23T07:59:18.266Z,262.75
2019-03-23T08:01:47.741Z,267.82
2019-03-23T08:04:17.233Z,260.82
2019-03-23T08:06:46.705Z,275.27
2019-03-23T08:09:20.389Z,278.40
2019-03-23T08:11:47.312Z,278.98
2019-03-23T08:14:16.703Z,283.38
2019-03-23T08:16:46.278Z,283.17
2019-03-23T08:19:15.748Z,287.50
2019-03-23T08:21:45.183Z,293.97
2019-03-23T08:24:14.637Z,287.00
2019-03-23T08:26:44.238Z,304.38
2019-03-23T08:29:13.884Z,292.35
2019-03-23T08:31:43.309Z,301.27
2019-03-23T08:34:12.705Z,319.20
2019-03-23T08:36:42.192Z,311.30
2019-03-23T08:39:11.678Z,329.87
2019-03-23T08:41:41.068Z,331.35
2019-03-23T08:44:10.509Z,321.30
2019-03-23T08:46:39.974Z,325.75
2019-03-23T08:49:09.356Z,337.05
2019-03-23T08:51:38.796Z,342.73
2019-03-23T08:54:08.354Z,350.50
2019-03-23T08:56:37.841Z,345.55
2019-03-23T08:59:07.352Z,337.42
2019-03-23T09:01:36.812Z,364.70
2019-03-23T09:04:06.395Z,367.15
2019-03-23T09:06:35.889Z,361.15
2019-03-23T09:09:06.822Z,363.45
2019-03-23T09:11:36.241Z,352.93
2019-03-23T09:14:05.956Z,354.00
2019-03-23T09:16:35.426Z,370.33
2019-03-23T09:19:04.981Z,369.32
2019-03-23T09:21:34.532Z,360.13
2019-03-23T09:24:04.126Z,364.90
2019-03-23T09:26:33.696Z,371.27
2019-03-23T09:29:03.159Z,362.70
2019-03-23T09:31:32.784Z,373.77
2019-03-23T09:34:02.237Z,373.82
2019-03-23T09:36:31.718Z,378.32
2019-03-23T09:39:01.281Z,374.80
2019-03-23T09:41:30.773Z,382.25
2019-03-23T09:44:00.223Z,381.60
2019-03-23T09:46:29.704Z,397.67
2019-03-23T09:48:59.073Z,395.97
2019-03-23T09:51:29.413Z,380.23
2019-03-23T09:53:59.096Z,388.18
2019-03-23T09:56:28.504Z,384.57
2019-03-23T09:58:58.099Z,404.25
2019-03-23T10:01:27.615Z,396.35
2019-03-23T10:03:57.034Z,393.82
2019-03-23T10:06:29.258Z,398.57
2019-03-23T10:08:58.685Z,415.32
2019-03-23T10:11:28.061Z,413.48
2019-03-23T10:13:57.440Z,421.07
2019-03-23T10:16:26.967Z,414.60
2019-03-23T10:18:56.407Z,419.52
2019-03-23T10:21:25.809Z,428.55
2019-03-23T10:23:55.224Z,431.32
2019-03-23T10:26:24.629Z,427.15
2019-03-23T10:28:54.043Z,420.88
2019-03-23T10:31:23.417Z,434.65
2019-03-23T10:33:52.902Z,443.37
2019-03-23T10:36:22.450Z,435.75
2019-03-23T10:38:51.918Z,448.40
2019-03-23T10:41:21.304Z,454.90
2019-03-23T10:43:50.724Z,456.60
2019-03-23T10:46:20.231Z,445.62
2019-03-23T10:48:49.778Z,456.75
2019-03-23T10:51:19.300Z,458.72
2019-03-23T10:53:48.706Z,446.83
2019-03-23T10:56:18.234Z,445.57
2019-03-23T10:58:47.640Z,461.58
2019-03-23T11:01:17.223Z,450.12
2019-03-23T11:03:46.916Z,469.10
2019-03-23T11:06:16.420Z,476.43
2019-03-23T11:08:45.842Z,481.40
2019-03-23T11:11:15.604Z,473.37
2019-03-23T11:13:45.258Z,487.75
2019-03-23T11:16:14.676Z,477.67
2019-03-23T11:18:44.092Z,487.35
2019-03-23T11:21:13.638Z,491.25
2019-03-23T11:23:43.084Z,481.43
2019-03-23T11:26:12.493Z,494.77
2019-03-23T11:28:45.034Z,498.62
2019-03-23T11:31:14.593Z,475.32
2019-03-23T11:33:44.281Z,484.18
2019-03-23T11:36:14.978Z,498.62
2019-03-23T11:38:44.382Z,517.40
2019-03-23T11:41:13.758Z,496.37
2019-03-23T11:43:43.266Z,504.92
2019-03-23T11:46:12.801Z,502.05
2019-03-23T11:48:42.201Z,515.28
2019-03-23T11:51:11.637Z,503.80
2019-03-23T11:53:41.190Z,500.27
2019-03-23T11:56:10.621Z,505.35
2019-03-23T11:58:40.056Z,501.43
2019-03-23T12:01:09.471Z,498.55
2019-03-23T12:03:39.729Z,503.02
2019-03-23T12:06:09.199Z,509.20
2019-03-23T12:08:38.597Z,492.72
2019-03-23T12:11:08.185Z,515.65
2019-03-23T12:13:37.660Z,497.00
2019-03-23T12:16:07.122Z,502.45
2019-03-23T12:18:36.512Z,514.52
2019-03-23T12:21:06.190Z,499.90
2019-03-23T12:23:35.736Z,503.35
2019-03-23T12:26:05.421Z,502.93
2019-03-23T12:28:34.940Z,497.85
2019-03-23T12:31:04.336Z,506.45
2019-03-23T12:33:33.741Z,499.23
2019-03-23T12:36:03.140Z,492.12
2019-03-23T12:38:32.601Z,494.82
2019-03-23T12:41:11.180Z,476.87
2019-03-23T12:43:33.273Z,490.80
2019-03-23T12:46:02.834Z,493.48
2019-03-23T12:48:32.281Z,490.02
2019-03-23T12:51:07.565Z,496.03
2019-03-23T12:53:37.009Z,500.80
2019-03-23T12:56:06.485Z,503.70
2019-03-23T12:58:36.100Z,505.25
2019-03-23T13:01:05.739Z,507.77
2019-03-23T13:03:35.157Z,500.53
2019-03-23T13:06:04.680Z,498.65
2019-03-23T13:08:34.149Z,516.02
2019-03-23T13:11:03.622Z,507.43
2019-03-23T13:13:33.132Z,526.82
2019-03-23T13:16:02.525Z,508.95
2019-03-23T13:18:31.972Z,502.70
2019-03-23T13:21:03.097Z,503.25
2019-03-23T13:23:32.876Z,501.65
2019-03-23T13:26:02.364Z,500.90
2019-03-23T13:28:31.823Z,494.62
2019-03-23T13:31:01.286Z,493.00
2019-03-23T13:33:30.689Z,509.63
2019-03-23T13:36:00.113Z,504.90
2019-03-23T13:38:29.734Z,505.90
2019-03-23T13:40:59.330Z,504.27
2019-03-23T13:43:29.024Z,511.15
2019-03-23T13:45:58.764Z,486.28
2019-03-23T13:48:28.210Z,511.52
2019-03-23T13:50:57.948Z,510.17
2019-03-23T13:53:27.615Z,509.13
2019-03-23T13:55:57.398Z,501.95
2019-03-23T13:58:26.889Z,496.12
2019-03-23T14:00:56.451Z,504.02
2019-03-23T14:03:26.045Z,500.50
2019-03-23T14:05:55.705Z,500.70
2019-03-23T14:08:25.229Z,506.37
2019-03-23T14:10:57.574Z,504.65
2019-03-23T14:13:27.876Z,500.80
2019-03-23T14:16:21.644Z,491.42
2019-03-23T14:18:51.010Z,494.80
2019-03-23T14:21:20.619Z,494.85
2019-03-23T14:23:50.015Z,496.83
2019-03-23T14:26:19.663Z,489.93
2019-03-23T14:28:49.127Z,489.95
2019-03-23T14:31:18.817Z,485.93
2019-03-23T14:33:48.252Z,488.33
2019-03-23T14:36:17.919Z,493.25
2019-03-23T14:38:47.328Z,483.90
2019-03-23T14:41:17.033Z,500.02
2019-03-23T14:43:46.495Z,496.68
2019-03-23T14:46:15.925Z,499.95
2019-03-23T14:48:45.680Z,506.25
2019-03-23T14:51:15.104Z,493.17
2019-03-23T14:53:44.563Z,499.48
2019-03-23T14:56:14.033Z,492.20
2019-03-23T14:58:43.647Z,485.32
2019-03-23T15:01:13.111Z,492.48
2019-03-23T15:03:42.528Z,492.50
2019-03-23T15:06:11.988Z,494.58
2019-03-23T15:08:41.492Z,496.55
2019-03-23T15:11:10.968Z,508.42
2019-03-23T15:13:40.711Z,492.03
2019-03-23T15:16:10.432Z,490.68
2019-03-23T15:18:39.921Z,487.08
2019-03-23T15:21:09.464Z,480.13
2019-03-23T15:23:38.954Z,484.25
2019-03-23T15:26:08.404Z,478.52
2019-03-23T15:28:37.951Z,473.85
2019-03-23T15:31:07.409Z,473.35
2019-03-23T15:33:36.787Z,465.15
2019-03-23T15:36:06.204Z,465.92
2019-03-23T15:38:36.181Z,468.60
2019-03-23T15:41:05.575Z,459.25
2019-03-23T15:43:35.063Z,469.47
2019-03-23T15:46:04.542Z,482.80
2019-03-23T15:48:33.941Z,466.92
2019-03-23T15:51:03.495Z,461.52
2019-03-23T15:53:32.934Z,456.23
2019-03-23T15:56:02.408Z,450.45
2019-03-23T15:58:31.871Z,455.48
2019-03-23T16:01:01.360Z,454.23
2019-03-23T16:03:30.811Z,436.45
2019-03-23T16:06:00.291Z,441.10
2019-03-23T16:08:29.825Z,445.98
2019-03-23T16:10:59.309Z,432.98
2019-03-23T16:13:28.810Z,428.10
2019-03-23T16:15:58.225Z,427.55
2019-03-23T16:18:27.839Z,434.70
2019-03-23T16:20:57.252Z,437.60
2019-03-23T16:23:26.657Z,427.95
2019-03-23T16:25:56.234Z,432.08
2019-03-23T16:28:25.769Z,423.90
2019-03-23T16:30:55.415Z,429.18
2019-03-23T16:33:24.958Z,429.85
2019-03-23T16:35:54.511Z,416.12
2019-03-23T16:38:24.065Z,406.43
2019-03-23T16:40:53.572Z,404.05
2019-03-23T16:43:22.993Z,410.90
2019-03-23T16:45:52.613Z,403.18
2019-03-23T16:48:22.019Z,396.25
2019-03-23T16:50:51.580Z,408.57
2019-03-23T16:53:20.963Z,411.38
2019-03-23T16:55:50.423Z,398.43
2019-03-23T16:58:19.876Z,407.30
2019-03-23T17:00:49.333Z,396.48
2019-03-23T17:03:18.838Z,392.95
2019-03-23T17:05:49.175Z,389.15
2019-03-23T17:08:31.841Z,390.95
2019-03-23T17:11:06.572Z,383.30
2019-03-23T17:13:36.391Z,382.43
2019-03-23T17:16:06.114Z,375.98
2019-03-23T17:18:35.583Z,389.17
2019-03-23T17:21:05.144Z,373.75
2019-03-23T17:23:34.700Z,375.38
2019-03-23T17:26:04.365Z,367.68
2019-03-23T17:28:49.161Z,357.60
2019-03-23T17:31:18.668Z,356.75
2019-03-23T17:33:48.147Z,350.85
2019-03-23T17:36:31.690Z,356.87
2019-03-23T17:39:01.194Z,352.27
2019-03-23T17:41:30.802Z,354.43
2019-03-23T17:47:11.128Z,343.27
2019-03-23T17:49:43.014Z,345.50
2019-03-23T17:52:12.552Z,336.25
2019-03-23T17:54:43.251Z,327.15
2019-03-23T17:57:13.743Z,333.70
2019-03-23T17:59:43.195Z,318.37
2019-03-23T18:02:12.852Z,327.77
2019-03-23T18:04:42.463Z,326.37
2019-03-23T18:07:11.836Z,323.98
2019-03-23T18:09:41.329Z,308.50
2019-03-23T18:12:10.813Z,303.32
2019-03-23T18:14:40.350Z,290.68
2019-03-23T18:17:09.867Z,290.27
2019-03-23T18:19:39.384Z,288.65
2019-03-23T18:22:08.881Z,289.48
2019-03-23T18:24:38.441Z,281.70
2019-03-23T18:27:08.031Z,274.75
2019-03-23T18:29:37.397Z,277.62
2019-03-23T18:32:06.946Z,279.23
2019-03-23T18:34:36.448Z,274.07
2019-03-23T18:37:05.901Z,263.12
2019-03-23T18:39:35.345Z,270.05
2019-03-23T18:42:04.892Z,262.17
2019-03-23T18:44:34.285Z,260.63
2019-03-23T18:47:03.813Z,255.35
2019-03-23T18:49:33.451Z,249.05
2019-03-23T18:52:03.042Z,242.80
2019-03-23T18:54:32.960Z,240.77
2019-03-23T18:57:02.426Z,235.50
2019-03-23T18:59:31.807Z,235.57
2019-03-23T19:02:01.332Z,229.30
2019-03-23T19:04:30.788Z,240.95
2019-03-23T19:07:00.266Z,236.82
2019-03-23T19:09:29.820Z,230.60
2019-03-23T19:11:59.256Z,223.90
2019-03-23T19:14:28.663Z,209.65
2019-03-23T19:16:58.146Z,215.65
2019-03-23T19:19:27.766Z,219.62
2019-03-23T19:21:57.315Z,222.45
2019-03-23T19:24:26.805Z,212.25
2019-03-23T19:26:56.300Z,216.42
2019-03-23T19:29:27.628Z,214.45
2019-03-23T19:31:56.951Z,223.57
2019-03-23T19:34:29.536Z,211.60
2019-03-23T19:36:59.159Z,209.70
2019-03-23T19:39:28.846Z,205.90
2019-03-23T19:41:59.525Z,208.70
2019-03-23T19:44:29.264Z,195.00
2019-03-23T19:46:59.105Z,201.70
2019-03-23T19:49:28.905Z,154.20
2019-03-23T19:51:58.964Z,201.10
2019-03-23T19:54:30.470Z,198.72
2019-03-23T19:57:12.952Z,198.80
2019-03-23T19:59:45.852Z,203.27
2019-03-23T20:02:16.179Z,143.75
2019-03-23T20:04:47.962Z,191.47
2019-03-23T20:07:17.629Z,193.60
2019-03-23T20:09:47.498Z,147.40
2019-03-23T20:12:17.251Z,154.27
2019-03-23T20:14:49.015Z,177.68
2019-03-23T20:17:18.783Z,170.50
2019-03-23T20:19:48.493Z,181.37
2019-03-23T20:22:18.376Z,140.32
2019-03-23T20:24:48.198Z,177.57
2019-03-23T20:27:17.647Z,186.75
2019-03-23T20:29:47.555Z,184.50
2019-03-23T20:32:17.289Z,184.87
2019-03-23T20:34:52.553Z,184.95
2019-03-23T20:37:22.005Z,135.70
2019-03-23T20:39:57.442Z,172.95
2019-03-23T20:42:29.308Z,171.28
2019-03-23T20:44:58.932Z,136.55
2019-03-23T20:47:28.848Z,136.37
2019-03-23T20:49:58.528Z,137.35
2019-03-23T20:52:28.025Z,166.70
2019-03-23T20:54:59.473Z,168.82
2019-03-23T20:57:36.940Z,167.87
2019-03-23T21:00:02.015Z,126.00
2019-03-23T21:02:31.468Z,167.77
